sensor_id;sensor_type;location;lat;lon;timestamp;temperature;humidity
40676;DHT22;26359;48.750;9.314;2023-05-19T00:01:12;13.20;99.90
40676;DHT22;26359;48.750;9.314;2023-05-19T00:03:48;13.20;99.90
40676;DHT22;26359;48.750;9.314;2023-05-19T00:06:19;13.10;99.90
40676;DHT22;26359;48.750;9.314;2023-05-19T00:08:46;13.10;99.90
40676;DHT22;26359;48.750;9.314;2023-05-19T00:11:12;13.10;99.90
40676;DHT22;26359;48.750;9.314;2023-05-19T00:13:38;13.10;99.90
40676;DHT22;26359;48.750;9.314;2023-05-19T00:16:03;13.10;99.90
40676;DHT22;26359;48.750;9.314;2023-05-19T00:18:30;13.10;99.90
40676;DHT22;26359;48.750;9.314;2023-05-19T00:20:55;13.10;99.90
40676;DHT22;26359;48.750;9.314;2023-05-19T00:23:21;13.10;99.90
40676;DHT22;26359;48.750;9.314;2023-05-19T00:25:46;13.10;99.90
40676;DHT22;26359;48.750;9.314;2023-05-19T00:28:12;13.10;99.90
40676;DHT22;26359;48.750;9.314;2023-05-19T00:30:37;13.10;99.90
40676;DHT22;26359;48.750;9.314;2023-05-19T00:33:03;13.00;99.90
40676;DHT22;26359;48.750;9.314;2023-05-19T00:35:28;12.90;99.90
40676;DHT22;26359;48.750;9.314;2023-05-19T00:37:55;12.90;99.90
40676;DHT22;26359;48.750;9.314;2023-05-19T00:40:21;12.90;99.90
40676;DHT22;26359;48.750;9.314;2023-05-19T00:42:47;12.80;99.90
40676;DHT22;26359;48.750;9.314;2023-05-19T00:45:13;12.70;99.90
40676;DHT22;26359;48.750;9.314;2023-05-19T00:47:38;12.70;99.90
40676;DHT22;26359;48.750;9.314;2023-05-19T00:50:04;12.70;99.90
40676;DHT22;26359;48.750;9.314;2023-05-19T00:52:30;12.70;99.90
40676;DHT22;26359;48.750;9.314;2023-05-19T00:54:55;12.70;99.90
40676;DHT22;26359;48.750;9.314;2023-05-19T00:57:21;12.70;99.90
40676;DHT22;26359;48.750;9.314;2023-05-19T00:59:49;12.70;99.90
40676;DHT22;26359;48.750;9.314;2023-05-19T01:02:15;12.70;99.90
40676;DHT22;26359;48.750;9.314;2023-05-19T01:04:42;12.70;99.90
40676;DHT22;26359;48.750;9.314;2023-05-19T01:07:09;12.70;99.90
40676;DHT22;26359;48.750;9.314;2023-05-19T01:09:36;12.70;99.90
40676;DHT22;26359;48.750;9.314;2023-05-19T01:12:02;12.70;99.90
40676;DHT22;26359;48.750;9.314;2023-05-19T01:14:28;12.70;99.90
40676;DHT22;26359;48.750;9.314;2023-05-19T01:20:02;12.70;99.90
40676;DHT22;26359;48.750;9.314;2023-05-19T01:28:52;12.70;99.90
40676;DHT22;26359;48.750;9.314;2023-05-19T01:31:22;12.80;99.90
40676;DHT22;26359;48.750;9.314;2023-05-19T01:33:51;12.70;99.90
40676;DHT22;26359;48.750;9.314;2023-05-19T01:36:18;12.70;99.90
40676;DHT22;26359;48.750;9.314;2023-05-19T01:38:45;12.70;99.90
40676;DHT22;26359;48.750;9.314;2023-05-19T01:41:13;12.70;99.90
40676;DHT22;26359;48.750;9.314;2023-05-19T01:43:40;12.70;99.90
40676;DHT22;26359;48.750;9.314;2023-05-19T01:46:06;12.60;99.90
40676;DHT22;26359;48.750;9.314;2023-05-19T01:48:32;12.60;99.90
40676;DHT22;26359;48.750;9.314;2023-05-19T01:50:58;12.60;99.90
40676;DHT22;26359;48.750;9.314;2023-05-19T01:53:24;12.50;99.90
40676;DHT22;26359;48.750;9.314;2023-05-19T01:55:52;12.50;99.90
40676;DHT22;26359;48.750;9.314;2023-05-19T02:00:57;12.50;99.90
40676;DHT22;26359;48.750;9.314;2023-05-19T02:14:58;12.50;99.90
40676;DHT22;26359;48.750;9.314;2023-05-19T02:17:26;12.50;99.90
40676;DHT22;26359;48.750;9.314;2023-05-19T02:19:53;12.50;99.90
40676;DHT22;26359;48.750;9.314;2023-05-19T02:22:19;12.50;99.90
40676;DHT22;26359;48.750;9.314;2023-05-19T02:24:44;12.50;99.90
40676;DHT22;26359;48.750;9.314;2023-05-19T02:27:12;12.50;99.90
40676;DHT22;26359;48.750;9.314;2023-05-19T02:29:37;12.50;99.90
40676;DHT22;26359;48.750;9.314;2023-05-19T02:32:03;12.50;99.90
40676;DHT22;26359;48.750;9.314;2023-05-19T02:34:28;12.50;99.90
40676;DHT22;26359;48.750;9.314;2023-05-19T02:36:54;12.60;99.90
40676;DHT22;26359;48.750;9.314;2023-05-19T02:39:20;12.50;99.90
40676;DHT22;26359;48.750;9.314;2023-05-19T02:41:46;12.50;99.90
40676;DHT22;26359;48.750;9.314;2023-05-19T02:44:11;12.50;99.90
40676;DHT22;26359;48.750;9.314;2023-05-19T02:46:37;12.50;99.90
40676;DHT22;26359;48.750;9.314;2023-05-19T02:49:02;12.50;99.90
40676;DHT22;26359;48.750;9.314;2023-05-19T02:51:28;12.40;99.90
40676;DHT22;26359;48.750;9.314;2023-05-19T02:53:53;12.40;99.90
40676;DHT22;26359;48.750;9.314;2023-05-19T02:56:19;12.40;99.90
40676;DHT22;26359;48.750;9.314;2023-05-19T02:58:45;12.40;99.90
40676;DHT22;26359;48.750;9.314;2023-05-19T03:01:11;12.40;99.90
40676;DHT22;26359;48.750;9.314;2023-05-19T03:03:37;12.40;99.90
40676;DHT22;26359;48.750;9.314;2023-05-19T03:06:02;12.40;99.90
40676;DHT22;26359;48.750;9.314;2023-05-19T03:08:28;12.40;99.90
40676;DHT22;26359;48.750;9.314;2023-05-19T03:10:53;12.40;99.90
40676;DHT22;26359;48.750;9.314;2023-05-19T03:13:19;12.40;99.90
40676;DHT22;26359;48.750;9.314;2023-05-19T03:15:44;12.40;99.90
40676;DHT22;26359;48.750;9.314;2023-05-19T03:18:10;12.30;99.90
40676;DHT22;26359;48.750;9.314;2023-05-19T03:20:38;12.40;99.90
40676;DHT22;26359;48.750;9.314;2023-05-19T03:23:06;12.30;99.90
40676;DHT22;26359;48.750;9.314;2023-05-19T03:25:33;12.30;99.90
40676;DHT22;26359;48.750;9.314;2023-05-19T03:27:58;12.20;99.90
40676;DHT22;26359;48.750;9.314;2023-05-19T03:30:24;12.30;99.90
40676;DHT22;26359;48.750;9.314;2023-05-19T03:32:49;12.30;99.90
40676;DHT22;26359;48.750;9.314;2023-05-19T03:35:16;12.30;99.90
40676;DHT22;26359;48.750;9.314;2023-05-19T03:37:42;12.30;99.90
40676;DHT22;26359;48.750;9.314;2023-05-19T03:40:07;12.20;99.90
40676;DHT22;26359;48.750;9.314;2023-05-19T03:42:33;12.20;99.90
40676;DHT22;26359;48.750;9.314;2023-05-19T03:44:59;12.20;99.90
40676;DHT22;26359;48.750;9.314;2023-05-19T03:47:24;12.20;99.90
40676;DHT22;26359;48.750;9.314;2023-05-19T03:49:50;12.10;99.90
40676;DHT22;26359;48.750;9.314;2023-05-19T03:52:15;12.10;99.90
40676;DHT22;26359;48.750;9.314;2023-05-19T03:54:41;12.10;99.90
40676;DHT22;26359;48.750;9.314;2023-05-19T03:57:08;12.10;99.90
40676;DHT22;26359;48.750;9.314;2023-05-19T03:59:34;12.00;99.90
40676;DHT22;26359;48.750;9.314;2023-05-19T04:02:01;12.00;99.90
40676;DHT22;26359;48.750;9.314;2023-05-19T04:04:27;11.90;99.90
40676;DHT22;26359;48.750;9.314;2023-05-19T04:06:52;11.90;99.90
40676;DHT22;26359;48.750;9.314;2023-05-19T04:09:18;11.90;99.90
40676;DHT22;26359;48.750;9.314;2023-05-19T04:11:43;11.90;99.90
40676;DHT22;26359;48.750;9.314;2023-05-19T04:14:11;11.80;99.90
40676;DHT22;26359;48.750;9.314;2023-05-19T04:16:36;11.80;99.90
40676;DHT22;26359;48.750;9.314;2023-05-19T04:19:02;11.80;99.90
40676;DHT22;26359;48.750;9.314;2023-05-19T04:21:27;11.70;99.90
40676;DHT22;26359;48.750;9.314;2023-05-19T04:23:53;11.70;99.90
40676;DHT22;26359;48.750;9.314;2023-05-19T04:26:18;11.80;99.90
40676;DHT22;26359;48.750;9.314;2023-05-19T04:28:46;11.80;99.90
40676;DHT22;26359;48.750;9.314;2023-05-19T04:31:13;11.70;99.90
40676;DHT22;26359;48.750;9.314;2023-05-19T04:33:39;11.70;99.90
40676;DHT22;26359;48.750;9.314;2023-05-19T04:36:05;11.80;99.90
40676;DHT22;26359;48.750;9.314;2023-05-19T04:38:36;11.70;99.90
40676;DHT22;26359;48.750;9.314;2023-05-19T04:41:04;11.70;99.90
40676;DHT22;26359;48.750;9.314;2023-05-19T04:43:30;11.70;99.90
40676;DHT22;26359;48.750;9.314;2023-05-19T04:45:56;11.60;99.90
40676;DHT22;26359;48.750;9.314;2023-05-19T04:48:22;11.60;99.90
40676;DHT22;26359;48.750;9.314;2023-05-19T04:50:48;11.60;99.90
40676;DHT22;26359;48.750;9.314;2023-05-19T04:53:16;11.50;99.90
40676;DHT22;26359;48.750;9.314;2023-05-19T04:55:42;11.50;99.90
40676;DHT22;26359;48.750;9.314;2023-05-19T04:58:08;11.50;99.90
40676;DHT22;26359;48.750;9.314;2023-05-19T05:00:34;11.50;99.90
40676;DHT22;26359;48.750;9.314;2023-05-19T05:03:02;11.50;99.90
40676;DHT22;26359;48.750;9.314;2023-05-19T05:05:33;11.50;99.90
40676;DHT22;26359;48.750;9.314;2023-05-19T05:07:58;11.50;99.90
40676;DHT22;26359;48.750;9.314;2023-05-19T05:10:24;11.50;99.90
40676;DHT22;26359;48.750;9.314;2023-05-19T05:12:50;11.50;99.90
40676;DHT22;26359;48.750;9.314;2023-05-19T05:15:16;11.50;99.90
40676;DHT22;26359;48.750;9.314;2023-05-19T05:17:42;11.60;99.90
40676;DHT22;26359;48.750;9.314;2023-05-19T05:20:08;11.70;99.90
40676;DHT22;26359;48.750;9.314;2023-05-19T05:22:35;11.70;99.90
40676;DHT22;26359;48.750;9.314;2023-05-19T05:25:03;11.70;99.90
40676;DHT22;26359;48.750;9.314;2023-05-19T05:27:29;11.80;99.90
40676;DHT22;26359;48.750;9.314;2023-05-19T05:29:54;11.80;99.90
40676;DHT22;26359;48.750;9.314;2023-05-19T05:32:20;11.80;99.90
40676;DHT22;26359;48.750;9.314;2023-05-19T05:34:46;11.80;99.90
40676;DHT22;26359;48.750;9.314;2023-05-19T05:37:11;11.80;99.90
40676;DHT22;26359;48.750;9.314;2023-05-19T05:39:37;11.90;99.90
40676;DHT22;26359;48.750;9.314;2023-05-19T05:42:02;11.90;99.90
40676;DHT22;26359;48.750;9.314;2023-05-19T05:44:28;11.90;99.90
40676;DHT22;26359;48.750;9.314;2023-05-19T05:46:54;11.90;99.90
40676;DHT22;26359;48.750;9.314;2023-05-19T05:49:20;12.00;99.90
40676;DHT22;26359;48.750;9.314;2023-05-19T05:51:46;12.00;99.90
40676;DHT22;26359;48.750;9.314;2023-05-19T05:54:12;12.00;99.90
40676;DHT22;26359;48.750;9.314;2023-05-19T05:56:39;12.00;99.90
40676;DHT22;26359;48.750;9.314;2023-05-19T05:59:05;12.10;99.90
40676;DHT22;26359;48.750;9.314;2023-05-19T06:01:31;12.10;99.90
40676;DHT22;26359;48.750;9.314;2023-05-19T06:03:57;12.10;99.90
40676;DHT22;26359;48.750;9.314;2023-05-19T06:06:22;12.20;99.90
40676;DHT22;26359;48.750;9.314;2023-05-19T06:08:48;12.20;99.90
40676;DHT22;26359;48.750;9.314;2023-05-19T06:11:13;12.30;99.90
40676;DHT22;26359;48.750;9.314;2023-05-19T06:13:39;12.30;99.90
40676;DHT22;26359;48.750;9.314;2023-05-19T06:16:06;12.20;99.90
40676;DHT22;26359;48.750;9.314;2023-05-19T06:18:31;12.20;99.90
40676;DHT22;26359;48.750;9.314;2023-05-19T06:20:57;12.20;99.90
40676;DHT22;26359;48.750;9.314;2023-05-19T06:23:22;12.30;99.90
40676;DHT22;26359;48.750;9.314;2023-05-19T06:25:49;12.30;99.90
40676;DHT22;26359;48.750;9.314;2023-05-19T06:28:15;12.40;99.90
40676;DHT22;26359;48.750;9.314;2023-05-19T06:30:41;12.50;99.90
40676;DHT22;26359;48.750;9.314;2023-05-19T06:33:06;12.50;99.90
40676;DHT22;26359;48.750;9.314;2023-05-19T06:35:32;12.50;99.90
40676;DHT22;26359;48.750;9.314;2023-05-19T06:37:57;12.50;99.90
40676;DHT22;26359;48.750;9.314;2023-05-19T06:40:23;12.50;99.90
40676;DHT22;26359;48.750;9.314;2023-05-19T06:42:48;12.60;99.90
40676;DHT22;26359;48.750;9.314;2023-05-19T06:45:14;12.60;99.90
40676;DHT22;26359;48.750;9.314;2023-05-19T06:47:40;12.70;99.90
40676;DHT22;26359;48.750;9.314;2023-05-19T06:50:07;12.70;99.90
40676;DHT22;26359;48.750;9.314;2023-05-19T06:52:34;12.80;99.90
40676;DHT22;26359;48.750;9.314;2023-05-19T06:54:59;12.80;99.90
40676;DHT22;26359;48.750;9.314;2023-05-19T06:57:25;12.90;99.90
40676;DHT22;26359;48.750;9.314;2023-05-19T06:59:50;12.90;99.90
40676;DHT22;26359;48.750;9.314;2023-05-19T07:02:16;13.00;99.90
40676;DHT22;26359;48.750;9.314;2023-05-19T07:04:41;13.00;99.90
40676;DHT22;26359;48.750;9.314;2023-05-19T07:07:07;13.20;99.90
40676;DHT22;26359;48.750;9.314;2023-05-19T07:09:33;13.20;99.90
40676;DHT22;26359;48.750;9.314;2023-05-19T07:11:59;13.20;99.90
40676;DHT22;26359;48.750;9.314;2023-05-19T07:14:25;13.20;99.90
40676;DHT22;26359;48.750;9.314;2023-05-19T07:16:51;13.30;99.90
40676;DHT22;26359;48.750;9.314;2023-05-19T07:19:17;13.30;99.90
40676;DHT22;26359;48.750;9.314;2023-05-19T07:21:46;13.30;99.90
40676;DHT22;26359;48.750;9.314;2023-05-19T07:24:12;13.10;99.90
40676;DHT22;26359;48.750;9.314;2023-05-19T07:26:38;13.20;99.90
40676;DHT22;26359;48.750;9.314;2023-05-19T07:29:03;13.20;99.90
40676;DHT22;26359;48.750;9.314;2023-05-19T07:31:29;13.30;99.90
40676;DHT22;26359;48.750;9.314;2023-05-19T07:33:55;13.20;99.90
40676;DHT22;26359;48.750;9.314;2023-05-19T07:36:21;13.30;99.90
40676;DHT22;26359;48.750;9.314;2023-05-19T07:38:47;13.40;99.90
40676;DHT22;26359;48.750;9.314;2023-05-19T07:41:13;13.40;99.90
40676;DHT22;26359;48.750;9.314;2023-05-19T07:43:39;13.40;99.90
40676;DHT22;26359;48.750;9.314;2023-05-19T07:46:05;13.40;99.90
40676;DHT22;26359;48.750;9.314;2023-05-19T07:48:31;13.40;99.90
40676;DHT22;26359;48.750;9.314;2023-05-19T07:50:56;13.40;99.90
40676;DHT22;26359;48.750;9.314;2023-05-19T07:53:22;13.40;99.90
40676;DHT22;26359;48.750;9.314;2023-05-19T07:55:48;13.40;99.90
40676;DHT22;26359;48.750;9.314;2023-05-19T07:58:14;13.40;99.90
40676;DHT22;26359;48.750;9.314;2023-05-19T08:00:40;13.40;99.90
40676;DHT22;26359;48.750;9.314;2023-05-19T08:03:10;13.40;99.90
40676;DHT22;26359;48.750;9.314;2023-05-19T08:05:35;13.40;99.90
40676;DHT22;26359;48.750;9.314;2023-05-19T08:08:01;13.40;99.90
40676;DHT22;26359;48.750;9.314;2023-05-19T08:10:27;13.40;99.90
40676;DHT22;26359;48.750;9.314;2023-05-19T08:12:53;13.50;99.90
40676;DHT22;26359;48.750;9.314;2023-05-19T08:15:18;13.50;99.90
40676;DHT22;26359;48.750;9.314;2023-05-19T08:17:44;13.50;99.90
40676;DHT22;26359;48.750;9.314;2023-05-19T08:20:10;13.60;99.90
40676;DHT22;26359;48.750;9.314;2023-05-19T08:22:39;13.60;99.90
40676;DHT22;26359;48.750;9.314;2023-05-19T08:25:05;13.60;99.90
40676;DHT22;26359;48.750;9.314;2023-05-19T08:27:31;13.60;99.90
40676;DHT22;26359;48.750;9.314;2023-05-19T08:29:57;13.60;99.90
40676;DHT22;26359;48.750;9.314;2023-05-19T08:32:23;13.70;99.90
40676;DHT22;26359;48.750;9.314;2023-05-19T08:34:49;13.70;99.90
40676;DHT22;26359;48.750;9.314;2023-05-19T08:37:14;13.60;99.90
40676;DHT22;26359;48.750;9.314;2023-05-19T08:39:40;13.60;99.90
40676;DHT22;26359;48.750;9.314;2023-05-19T08:42:06;13.60;99.90
40676;DHT22;26359;48.750;9.314;2023-05-19T08:44:34;13.60;99.90
40676;DHT22;26359;48.750;9.314;2023-05-19T08:47:02;13.70;99.90
40676;DHT22;26359;48.750;9.314;2023-05-19T08:49:31;13.80;99.90
40676;DHT22;26359;48.750;9.314;2023-05-19T08:52:08;13.80;99.90
40676;DHT22;26359;48.750;9.314;2023-05-19T08:54:54;13.80;99.90
40676;DHT22;26359;48.750;9.314;2023-05-19T08:57:25;13.80;99.90
40676;DHT22;26359;48.750;9.314;2023-05-19T08:59:53;13.90;99.90
40676;DHT22;26359;48.750;9.314;2023-05-19T09:02:20;13.90;99.90
40676;DHT22;26359;48.750;9.314;2023-05-19T09:04:47;13.90;99.90
40676;DHT22;26359;48.750;9.314;2023-05-19T09:07:13;13.90;99.90
40676;DHT22;26359;48.750;9.314;2023-05-19T09:09:40;13.90;99.90
40676;DHT22;26359;48.750;9.314;2023-05-19T09:12:08;13.90;99.90
40676;DHT22;26359;48.750;9.314;2023-05-19T09:14:35;13.90;99.90
40676;DHT22;26359;48.750;9.314;2023-05-19T09:17:01;13.90;99.90
40676;DHT22;26359;48.750;9.314;2023-05-19T09:19:30;13.90;99.90
40676;DHT22;26359;48.750;9.314;2023-05-19T09:22:00;13.90;99.90
40676;DHT22;26359;48.750;9.314;2023-05-19T09:24:27;13.90;99.90
40676;DHT22;26359;48.750;9.314;2023-05-19T09:26:54;14.00;99.90
40676;DHT22;26359;48.750;9.314;2023-05-19T09:29:24;14.00;99.90
40676;DHT22;26359;48.750;9.314;2023-05-19T09:31:51;14.00;99.90
40676;DHT22;26359;48.750;9.314;2023-05-19T09:34:19;14.00;99.90
40676;DHT22;26359;48.750;9.314;2023-05-19T09:36:46;14.00;99.90
40676;DHT22;26359;48.750;9.314;2023-05-19T09:39:14;14.00;99.90
40676;DHT22;26359;48.750;9.314;2023-05-19T09:41:41;14.10;99.90
40676;DHT22;26359;48.750;9.314;2023-05-19T09:44:06;14.10;99.90
40676;DHT22;26359;48.750;9.314;2023-05-19T09:46:36;14.20;99.90
40676;DHT22;26359;48.750;9.314;2023-05-19T09:49:08;14.20;99.90
40676;DHT22;26359;48.750;9.314;2023-05-19T09:51:39;14.20;99.90
40676;DHT22;26359;48.750;9.314;2023-05-19T09:54:05;14.20;99.90
40676;DHT22;26359;48.750;9.314;2023-05-19T09:56:33;14.20;99.90
40676;DHT22;26359;48.750;9.314;2023-05-19T09:58:58;14.20;99.90
40676;DHT22;26359;48.750;9.314;2023-05-19T10:01:24;14.30;99.90
40676;DHT22;26359;48.750;9.314;2023-05-19T10:03:51;14.20;99.90
40676;DHT22;26359;48.750;9.314;2023-05-19T10:06:18;14.20;99.90
40676;DHT22;26359;48.750;9.314;2023-05-19T10:08:45;14.20;99.90
40676;DHT22;26359;48.750;9.314;2023-05-19T10:11:12;14.20;99.90
40676;DHT22;26359;48.750;9.314;2023-05-19T10:13:39;14.20;99.90
40676;DHT22;26359;48.750;9.314;2023-05-19T10:16:05;14.20;99.90
40676;DHT22;26359;48.750;9.314;2023-05-19T10:18:32;14.20;99.90
40676;DHT22;26359;48.750;9.314;2023-05-19T10:20:59;14.20;99.90
40676;DHT22;26359;48.750;9.314;2023-05-19T10:23:25;14.30;99.90
40676;DHT22;26359;48.750;9.314;2023-05-19T10:25:54;14.30;99.90
40676;DHT22;26359;48.750;9.314;2023-05-19T10:28:21;14.30;99.90
40676;DHT22;26359;48.750;9.314;2023-05-19T10:30:53;14.30;99.90
40676;DHT22;26359;48.750;9.314;2023-05-19T10:33:35;14.40;99.90
40676;DHT22;26359;48.750;9.314;2023-05-19T10:39:32;14.50;99.90
40676;DHT22;26359;48.750;9.314;2023-05-19T10:42:28;14.50;99.90
40676;DHT22;26359;48.750;9.314;2023-05-19T10:45:21;14.50;99.90
40676;DHT22;26359;48.750;9.314;2023-05-19T10:47:51;14.50;99.90
40676;DHT22;26359;48.750;9.314;2023-05-19T10:50:16;14.50;99.90
40676;DHT22;26359;48.750;9.314;2023-05-19T10:52:42;14.50;99.90
40676;DHT22;26359;48.750;9.314;2023-05-19T10:55:11;14.50;99.90
40676;DHT22;26359;48.750;9.314;2023-05-19T10:57:54;14.50;99.90
40676;DHT22;26359;48.750;9.314;2023-05-19T11:00:29;14.50;99.90
40676;DHT22;26359;48.750;9.314;2023-05-19T11:03:15;14.50;99.90
40676;DHT22;26359;48.750;9.314;2023-05-19T11:05:42;14.60;99.90
40676;DHT22;26359;48.750;9.314;2023-05-19T11:08:10;14.60;99.90
40676;DHT22;26359;48.750;9.314;2023-05-19T11:10:37;14.70;99.90
40676;DHT22;26359;48.750;9.314;2023-05-19T11:13:03;14.70;99.90
40676;DHT22;26359;48.750;9.314;2023-05-19T11:15:33;14.70;99.90
40676;DHT22;26359;48.750;9.314;2023-05-19T11:18:00;14.60;99.90
40676;DHT22;26359;48.750;9.314;2023-05-19T11:20:27;14.60;99.90
40676;DHT22;26359;48.750;9.314;2023-05-19T11:23:07;14.60;99.90
40676;DHT22;26359;48.750;9.314;2023-05-19T11:25:43;14.70;99.90
40676;DHT22;26359;48.750;9.314;2023-05-19T11:28:10;14.60;99.90
40676;DHT22;26359;48.750;9.314;2023-05-19T11:30:42;14.60;99.90
40676;DHT22;26359;48.750;9.314;2023-05-19T11:33:08;14.50;99.90
40676;DHT22;26359;48.750;9.314;2023-05-19T11:35:34;14.50;99.90
40676;DHT22;26359;48.750;9.314;2023-05-19T11:38:00;14.50;99.90
40676;DHT22;26359;48.750;9.314;2023-05-19T11:40:28;14.50;99.90
40676;DHT22;26359;48.750;9.314;2023-05-19T11:42:53;14.50;99.90
40676;DHT22;26359;48.750;9.314;2023-05-19T11:45:25;14.50;99.90
40676;DHT22;26359;48.750;9.314;2023-05-19T11:47:54;14.50;99.90
40676;DHT22;26359;48.750;9.314;2023-05-19T11:50:21;14.60;99.90
40676;DHT22;26359;48.750;9.314;2023-05-19T11:52:46;14.60;99.90
40676;DHT22;26359;48.750;9.314;2023-05-19T11:55:19;14.60;99.90
40676;DHT22;26359;48.750;9.314;2023-05-19T12:00:23;14.60;99.90
40676;DHT22;26359;48.750;9.314;2023-05-19T12:02:49;14.60;99.90
40676;DHT22;26359;48.750;9.314;2023-05-19T12:05:22;14.60;99.90
40676;DHT22;26359;48.750;9.314;2023-05-19T12:07:48;14.60;99.90
40676;DHT22;26359;48.750;9.314;2023-05-19T12:10:22;14.60;99.90
40676;DHT22;26359;48.750;9.314;2023-05-19T12:12:49;14.60;99.90
40676;DHT22;26359;48.750;9.314;2023-05-19T12:15:18;14.70;99.90
40676;DHT22;26359;48.750;9.314;2023-05-19T12:17:48;14.70;99.90
40676;DHT22;26359;48.750;9.314;2023-05-19T12:20:14;14.70;99.90
40676;DHT22;26359;48.750;9.314;2023-05-19T12:22:40;14.70;99.90
40676;DHT22;26359;48.750;9.314;2023-05-19T12:25:05;14.70;99.90
40676;DHT22;26359;48.750;9.314;2023-05-19T12:27:34;14.80;99.90
40676;DHT22;26359;48.750;9.314;2023-05-19T12:30:02;14.80;99.90
40676;DHT22;26359;48.750;9.314;2023-05-19T12:32:28;14.80;99.90
40676;DHT22;26359;48.750;9.314;2023-05-19T12:34:57;14.80;99.90
40676;DHT22;26359;48.750;9.314;2023-05-19T12:37:26;14.80;99.90
40676;DHT22;26359;48.750;9.314;2023-05-19T12:39:52;14.80;99.90
40676;DHT22;26359;48.750;9.314;2023-05-19T12:42:18;14.80;99.90
40676;DHT22;26359;48.750;9.314;2023-05-19T12:44:48;14.80;99.90
40676;DHT22;26359;48.750;9.314;2023-05-19T12:47:17;14.80;99.90
40676;DHT22;26359;48.750;9.314;2023-05-19T12:52:26;14.90;99.90
40676;DHT22;26359;48.750;9.314;2023-05-19T12:55:05;14.90;99.90
40676;DHT22;26359;48.750;9.314;2023-05-19T12:57:35;14.90;99.90
40676;DHT22;26359;48.750;9.314;2023-05-19T13:00:13;14.90;99.90
40676;DHT22;26359;48.750;9.314;2023-05-19T13:03:06;14.90;99.90
40676;DHT22;26359;48.750;9.314;2023-05-19T13:05:36;15.00;99.90
40676;DHT22;26359;48.750;9.314;2023-05-19T13:08:10;15.10;99.90
40676;DHT22;26359;48.750;9.314;2023-05-19T13:10:36;15.10;99.90
40676;DHT22;26359;48.750;9.314;2023-05-19T13:13:03;15.10;99.90
40676;DHT22;26359;48.750;9.314;2023-05-19T13:15:31;15.10;99.90
40676;DHT22;26359;48.750;9.314;2023-05-19T13:17:59;15.20;99.90
40676;DHT22;26359;48.750;9.314;2023-05-19T13:20:25;15.20;99.90
40676;DHT22;26359;48.750;9.314;2023-05-19T13:22:51;15.20;99.90
40676;DHT22;26359;48.750;9.314;2023-05-19T13:25:17;15.20;99.90
40676;DHT22;26359;48.750;9.314;2023-05-19T13:27:46;15.10;99.90
40676;DHT22;26359;48.750;9.314;2023-05-19T13:30:12;15.00;99.90
40676;DHT22;26359;48.750;9.314;2023-05-19T13:32:38;15.00;99.90
40676;DHT22;26359;48.750;9.314;2023-05-19T13:35:04;15.00;99.90
40676;DHT22;26359;48.750;9.314;2023-05-19T13:37:30;15.00;99.90
40676;DHT22;26359;48.750;9.314;2023-05-19T13:39:55;15.00;99.90
40676;DHT22;26359;48.750;9.314;2023-05-19T13:42:22;15.10;99.90
40676;DHT22;26359;48.750;9.314;2023-05-19T13:44:47;15.10;99.90
40676;DHT22;26359;48.750;9.314;2023-05-19T13:47:13;15.20;99.90
40676;DHT22;26359;48.750;9.314;2023-05-19T13:49:39;15.20;99.90
40676;DHT22;26359;48.750;9.314;2023-05-19T13:52:06;15.20;99.90
40676;DHT22;26359;48.750;9.314;2023-05-19T13:54:32;15.30;99.90
40676;DHT22;26359;48.750;9.314;2023-05-19T13:56:58;15.30;99.90
40676;DHT22;26359;48.750;9.314;2023-05-19T13:59:26;15.40;99.90
40676;DHT22;26359;48.750;9.314;2023-05-19T14:01:52;15.50;99.90
40676;DHT22;26359;48.750;9.314;2023-05-19T14:04:18;15.50;99.90
40676;DHT22;26359;48.750;9.314;2023-05-19T14:06:44;15.50;99.90
40676;DHT22;26359;48.750;9.314;2023-05-19T14:09:10;15.50;99.90
40676;DHT22;26359;48.750;9.314;2023-05-19T14:11:36;15.50;99.90
40676;DHT22;26359;48.750;9.314;2023-05-19T14:14:01;15.40;99.90
40676;DHT22;26359;48.750;9.314;2023-05-19T14:16:30;15.40;99.90
40676;DHT22;26359;48.750;9.314;2023-05-19T14:18:56;15.50;99.90
40676;DHT22;26359;48.750;9.314;2023-05-19T14:21:21;15.50;99.90
40676;DHT22;26359;48.750;9.314;2023-05-19T14:23:47;15.50;99.90
40676;DHT22;26359;48.750;9.314;2023-05-19T14:26:13;15.50;99.90
40676;DHT22;26359;48.750;9.314;2023-05-19T14:28:38;15.50;99.90
40676;DHT22;26359;48.750;9.314;2023-05-19T14:31:04;15.40;99.90
40676;DHT22;26359;48.750;9.314;2023-05-19T14:33:31;15.40;99.90
40676;DHT22;26359;48.750;9.314;2023-05-19T14:35:56;15.40;99.90
40676;DHT22;26359;48.750;9.314;2023-05-19T14:38:25;15.40;99.90
40676;DHT22;26359;48.750;9.314;2023-05-19T14:40:50;15.40;99.90
40676;DHT22;26359;48.750;9.314;2023-05-19T14:43:16;15.40;99.90
40676;DHT22;26359;48.750;9.314;2023-05-19T14:45:41;15.40;99.90
40676;DHT22;26359;48.750;9.314;2023-05-19T14:48:07;15.50;99.90
40676;DHT22;26359;48.750;9.314;2023-05-19T14:50:34;15.50;99.90
40676;DHT22;26359;48.750;9.314;2023-05-19T14:53:00;15.40;99.90
40676;DHT22;26359;48.750;9.314;2023-05-19T14:55:25;15.40;99.90
40676;DHT22;26359;48.750;9.314;2023-05-19T14:57:51;15.40;99.90
40676;DHT22;26359;48.750;9.314;2023-05-19T15:00:17;15.30;99.90
40676;DHT22;26359;48.750;9.314;2023-05-19T15:02:42;15.30;99.90
40676;DHT22;26359;48.750;9.314;2023-05-19T15:05:08;15.20;99.90
40676;DHT22;26359;48.750;9.314;2023-05-19T15:07:34;15.20;99.90
40676;DHT22;26359;48.750;9.314;2023-05-19T15:09:59;15.20;99.90
40676;DHT22;26359;48.750;9.314;2023-05-19T15:12:26;15.20;99.90
40676;DHT22;26359;48.750;9.314;2023-05-19T15:14:51;15.20;99.90
40676;DHT22;26359;48.750;9.314;2023-05-19T15:17:17;15.20;99.90
40676;DHT22;26359;48.750;9.314;2023-05-19T15:19:43;15.20;99.90
40676;DHT22;26359;48.750;9.314;2023-05-19T15:22:08;15.20;99.90
40676;DHT22;26359;48.750;9.314;2023-05-19T15:24:34;15.20;99.90
40676;DHT22;26359;48.750;9.314;2023-05-19T15:27:00;15.20;99.90
40676;DHT22;26359;48.750;9.314;2023-05-19T15:29:26;15.30;99.90
40676;DHT22;26359;48.750;9.314;2023-05-19T15:31:51;15.30;99.90
40676;DHT22;26359;48.750;9.314;2023-05-19T15:34:18;15.30;99.90
40676;DHT22;26359;48.750;9.314;2023-05-19T15:36:44;15.30;99.90
40676;DHT22;26359;48.750;9.314;2023-05-19T15:39:09;15.20;99.90
40676;DHT22;26359;48.750;9.314;2023-05-19T15:41:35;15.30;99.90
40676;DHT22;26359;48.750;9.314;2023-05-19T15:44:00;15.30;99.90
40676;DHT22;26359;48.750;9.314;2023-05-19T15:46:27;15.30;99.90
40676;DHT22;26359;48.750;9.314;2023-05-19T15:48:53;15.30;99.90
40676;DHT22;26359;48.750;9.314;2023-05-19T15:51:19;15.30;99.90
40676;DHT22;26359;48.750;9.314;2023-05-19T15:53:44;15.40;99.90
40676;DHT22;26359;48.750;9.314;2023-05-19T15:56:10;15.40;99.90
40676;DHT22;26359;48.750;9.314;2023-05-19T15:58:35;15.40;99.90
40676;DHT22;26359;48.750;9.314;2023-05-19T16:01:01;15.40;99.90